Terminal Aerodrome Forecast
Issued by NWS

Home | Current Version | Previous Version | Text Only | Print | Product List | Glossary On
Versions: 1 2 3 4 5 6 7 8 9 10 11 12 13
000
FTUS43 KICT 092331
TAFCNU
TAF
KCNU 092331Z 1000/1024 33012KT P6SM SKC
     FM100300 31005KT P6SM SCT250
     FM100800 VRB03KT P6SM BKN060
     FM101400 19012KT P6SM SCT060
     FM101700 22017KT P6SM SKC=

USA.gov is the U.S. government's official web portal to all federal, state and local government web resources and services.